This is the latest recevied weather packets stored in our database for station/object OE5HCE. If no packets are shown the sender has not sent any weather packets the latest 1 day(s).
| Time | Temp. | Humidity | Pressure | Rain* | Wind** | Luminosity | Snow |
|---|---|---|---|---|---|---|---|
| 1778105736 | 12.22° C | 76% | 1010.4 hPa | 0 mm | - | 0 W/m² | - |
| 1778104839 | 12.22° C | 76% | 1010.1 hPa | 0 mm | - | 0 W/m² | - |
| 1778103032 | 12.22° C | 77% | 1010 hPa | 0 mm | - | 0 W/m² | - |
| 1778101290 | 13.33° C | 77% | 1009.8 hPa | 0 mm | - | 0 W/m² | - |
| 1778098524 | 13.89° C | 77% | 1009 hPa | 0 mm | - | 0 W/m² | - |
| 1778094025 | 15° C | 72% | 1007.2 hPa | 0 mm | - | 0 W/m² | - |
| 1778092221 | 15.56° C | 69% | 1006.2 hPa | 0 mm | - | 0 W/m² | - |
| 1778088616 | 21.11° C | 47% | 1002.5 hPa | 0 mm | - | 12 W/m² | - |
| 1778087720 | 21.67° C | 47% | 1001.8 hPa | 0 mm | - | 44 W/m² | - |
| 1778086815 | 22.78° C | 43% | 1001.5 hPa | 0 mm | - | 35 W/m² | - |
| 1778085913 | 23.89° C | 42% | 1001.4 hPa | 0 mm | - | 202 W/m² | - |
| 1778084109 | 23.89° C | 42% | 1002.1 hPa | 0 mm | - | 318 W/m² | - |
| 1778078702 | 23.89° C | 45% | 1002.7 hPa | 0 mm | - | 288 W/m² | - |
| 1778076058 | 24.44° C | 46% | 1003.1 hPa | 0 mm | - | 434 W/m² | - |
| 1778074258 | 24.44° C | 49% | 1003.6 hPa | 0 mm | - | 851 W/m² | - |
| 1778072451 | 23.89° C | 49% | 1004.2 hPa | 0 mm | - | 302 W/m² | - |
| 1778068839 | 23.33° C | 54% | 1004.9 hPa | 0 mm | - | 752 W/m² | - |
| 1778064327 | 21.11° C | 60% | 1006.1 hPa | 0 mm | - | 875 W/m² | - |
| 1778063424 | 20° C | 63% | 1006.4 hPa | 0 mm | - | 812 W/m² | - |
| 1778060710 | 18.89° C | 65% | 1007 hPa | 0 mm | - | 213 W/m² | - |
| 1778058908 | 18.33° C | 65% | 1007.1 hPa | 0 mm | - | 264 W/m² | - |
| 1778051748 | 15.56° C | 73% | 1007.9 hPa | 0 mm | - | 427 W/m² | - |
| 1778049943 | 15.56° C | 76% | 1008 hPa | 0 mm | - | 183 W/m² | - |
| 1778047236 | 13.89° C | 77% | 1008.4 hPa | 0 mm | - | 151 W/m² | - |
| 1778044530 | 12.78° C | 69% | 1008.5 hPa | 0 mm | - | 234 W/m² | - |
* Rain latest hour (hover to see other rain measurements)
** Current wind speed in m/s (hover to see current wind gust speed)